Schedule Details

Flight Number: CPX762
Departure: Jorge Chávez International Airport (SPJC) at 0930 UTC
Arrival: Miami International Airport (KMIA) at 1530 UTC
Route: XOPLI UG448 IKBIX Y183 PEAKY DVALL CURSO5


Current Weather Information
SPJC 152000Z 18008KT 150V210 CAVOK 27/21 Q1011 NOSIG RMK PP000
KMIA 151953Z 14009KT 10SM SCT032 BKN250 26/19 A2993 RMK AO2 SLP136 T02560189

Route Map